createdAt,value
2023-05-05T00:00:12.184Z,19.10
2023-05-05T00:02:13.879Z,19.10
2023-05-05T00:04:17.561Z,19.10
2023-05-05T00:06:19.351Z,19.10
2023-05-05T00:08:21.683Z,19.00
2023-05-05T00:10:23.872Z,19.00
2023-05-05T00:12:25.573Z,19.00
2023-05-05T00:14:27.278Z,19.00
2023-05-05T00:16:28.984Z,19.00
2023-05-05T00:18:30.755Z,19.00
2023-05-05T00:20:32.352Z,18.90
2023-05-05T00:22:33.965Z,19.00
2023-05-05T00:24:35.930Z,18.90
2023-05-05T00:26:37.604Z,18.90
2023-05-05T00:28:39.426Z,18.90
2023-05-05T00:30:41.232Z,18.90
2023-05-05T00:32:42.933Z,18.90
2023-05-05T00:34:44.712Z,18.90
2023-05-05T00:36:46.453Z,18.90
2023-05-05T00:38:48.115Z,19.00
2023-05-05T00:40:49.840Z,18.90
2023-05-05T00:42:51.634Z,18.90
2023-05-05T00:44:53.294Z,18.90
2023-05-05T00:46:54.922Z,18.80
2023-05-05T00:48:57.422Z,19.00
2023-05-05T00:50:59.461Z,18.90
2023-05-05T00:53:02.040Z,18.90
2023-05-05T00:55:04.478Z,19.00
2023-05-05T00:57:06.187Z,18.90
2023-05-05T00:59:07.826Z,18.90
2023-05-05T01:01:10.239Z,18.90
2023-05-05T01:03:15.337Z,18.90
2023-05-05T01:05:17.573Z,18.80
2023-05-05T01:07:37.787Z,18.90
2023-05-05T01:10:15.217Z,18.80
2023-05-05T01:12:20.502Z,18.90
2023-05-05T01:14:28.392Z,18.80
2023-05-05T01:16:32.697Z,18.80
2023-05-05T01:18:49.848Z,18.90
2023-05-05T01:20:54.508Z,18.80
2023-05-05T01:22:58.339Z,18.80
2023-05-05T01:25:09.120Z,18.80
2023-05-05T01:27:30.367Z,18.80
2023-05-05T01:29:41.004Z,18.80
2023-05-05T01:31:55.439Z,18.70
2023-05-05T01:33:59.693Z,18.70
2023-05-05T01:36:04.989Z,18.70
2023-05-05T01:38:11.835Z,18.70
2023-05-05T01:40:15.285Z,18.70
2023-05-05T01:42:18.606Z,18.70
2023-05-05T01:44:20.444Z,18.70
2023-05-05T01:46:23.632Z,18.70
2023-05-05T01:48:26.006Z,18.70
2023-05-05T01:50:28.562Z,18.70
2023-05-05T01:52:30.342Z,18.60
2023-05-05T01:54:35.177Z,18.70
2023-05-05T01:56:38.567Z,18.70
2023-05-05T01:58:42.486Z,18.70
2023-05-05T02:00:44.537Z,18.60
2023-05-05T02:02:47.261Z,18.70
2023-05-05T02:04:49.323Z,18.60
2023-05-05T02:06:53.031Z,18.60
2023-05-05T02:08:55.328Z,18.60
2023-05-05T02:10:57.585Z,18.50
2023-05-05T02:13:01.628Z,18.60
2023-05-05T02:15:04.751Z,18.60
2023-05-05T02:17:06.931Z,18.50
2023-05-05T02:19:08.653Z,18.50
2023-05-05T02:21:10.329Z,18.50
2023-05-05T02:23:12.039Z,18.50
2023-05-05T02:25:13.812Z,18.40
2023-05-05T02:27:17.714Z,18.40
2023-05-05T02:29:22.343Z,18.40
2023-05-05T02:31:27.573Z,18.40
2023-05-05T02:33:31.616Z,18.40
2023-05-05T02:35:36.377Z,18.40
2023-05-05T02:37:39.257Z,18.50
2023-05-05T02:39:45.538Z,18.30
2023-05-05T02:41:52.155Z,18.30
2023-05-05T02:43:59.527Z,18.30
2023-05-05T02:46:03.054Z,18.20
2023-05-05T02:48:07.041Z,18.20
2023-05-05T02:50:13.261Z,18.20
2023-05-05T02:52:22.842Z,18.20
2023-05-05T02:54:24.758Z,18.20
2023-05-05T02:56:40.958Z,18.20
2023-05-05T02:58:48.412Z,18.20
2023-05-05T03:01:11.511Z,18.20
2023-05-05T03:03:16.393Z,18.10
2023-05-05T03:05:25.208Z,18.10
2023-05-05T03:07:39.507Z,18.10
2023-05-05T03:09:45.960Z,18.10
2023-05-05T03:11:54.725Z,18.10
2023-05-05T03:14:01.343Z,18.10
2023-05-05T03:16:06.709Z,18.10
2023-05-05T03:18:10.554Z,18.10
2023-05-05T03:20:14.487Z,18.00
2023-05-05T03:22:19.557Z,18.00
2023-05-05T03:24:22.324Z,18.00
2023-05-05T03:26:35.195Z,18.00
2023-05-05T03:28:38.318Z,18.00
2023-05-05T03:30:48.579Z,18.00
2023-05-05T03:32:52.129Z,17.90
2023-05-05T03:34:54.253Z,17.90
2023-05-05T03:37:01.218Z,17.90
2023-05-05T03:39:02.972Z,17.90
2023-05-05T03:41:07.854Z,17.90
2023-05-05T03:43:09.589Z,17.90
2023-05-05T03:45:12.672Z,17.80
2023-05-05T03:47:14.875Z,17.80
2023-05-05T03:49:17.171Z,17.80
2023-05-05T03:51:20.741Z,17.80
2023-05-05T03:53:23.079Z,17.90
2023-05-05T03:55:24.923Z,17.80
2023-05-05T03:57:26.884Z,17.80
2023-05-05T03:59:28.592Z,17.80
2023-05-05T04:01:31.378Z,17.80
2023-05-05T04:03:34.232Z,17.80
2023-05-05T04:05:36.375Z,17.80
2023-05-05T04:07:38.076Z,17.70
2023-05-05T04:09:44.303Z,17.70
2023-05-05T04:11:46.941Z,17.80
2023-05-05T04:13:49.921Z,17.70
2023-05-05T04:15:52.729Z,17.70
2023-05-05T04:17:54.656Z,17.70
2023-05-05T04:19:56.437Z,17.70
2023-05-05T04:21:58.153Z,17.70
2023-05-05T04:23:59.860Z,17.80
2023-05-05T04:26:01.697Z,17.80
2023-05-05T04:28:03.505Z,17.80
2023-05-05T04:30:06.926Z,17.70
2023-05-05T04:32:10.688Z,17.70
2023-05-05T04:34:12.455Z,17.70
2023-05-05T04:36:14.504Z,17.80
2023-05-05T04:38:16.975Z,17.70
2023-05-05T04:40:18.741Z,17.70
2023-05-05T04:42:20.631Z,17.80
2023-05-05T04:44:22.282Z,17.80
2023-05-05T04:46:24.619Z,17.70
2023-05-05T04:48:26.527Z,17.70
2023-05-05T04:50:28.244Z,17.70
2023-05-05T04:52:29.890Z,17.70
2023-05-05T04:54:31.905Z,17.80
2023-05-05T04:56:33.536Z,17.70
2023-05-05T04:58:35.982Z,17.80
2023-05-05T05:00:38.070Z,17.70
2023-05-05T05:02:39.854Z,17.70
2023-05-05T05:04:41.565Z,17.70
2023-05-05T05:06:43.281Z,17.70
2023-05-05T05:08:45.994Z,17.70
2023-05-05T05:10:48.768Z,17.70
2023-05-05T05:12:50.560Z,17.70
2023-05-05T05:14:52.299Z,17.70
2023-05-05T05:16:54.132Z,17.70
2023-05-05T05:18:57.642Z,17.70
2023-05-05T05:20:59.607Z,17.80
2023-05-05T05:23:02.330Z,17.70
2023-05-05T05:25:05.853Z,17.80
2023-05-05T05:27:10.124Z,17.80
2023-05-05T05:29:13.959Z,17.80
2023-05-05T05:31:16.465Z,17.80
2023-05-05T05:33:18.899Z,17.90
2023-05-05T05:35:21.396Z,17.90
2023-05-05T05:37:23.181Z,17.90
2023-05-05T05:39:25.004Z,17.90
2023-05-05T05:41:26.776Z,17.90
2023-05-05T05:43:29.624Z,17.90
2023-05-05T05:45:31.313Z,18.00
2023-05-05T05:47:33.039Z,18.00
2023-05-05T05:49:35.374Z,18.00
2023-05-05T05:51:37.080Z,18.00
2023-05-05T05:53:38.825Z,18.10
2023-05-05T05:55:41.117Z,18.20
2023-05-05T05:57:43.195Z,18.20
2023-05-05T05:59:46.008Z,18.10
2023-05-05T06:01:47.831Z,18.20
2023-05-05T06:03:49.695Z,18.30
2023-05-05T06:05:51.963Z,18.30
2023-05-05T06:07:54.757Z,18.30
2023-05-05T06:09:58.267Z,18.30
2023-05-05T06:12:00.008Z,18.30
2023-05-05T06:14:01.741Z,18.40
2023-05-05T06:16:03.656Z,18.40
2023-05-05T06:18:05.823Z,18.40
2023-05-05T06:20:07.973Z,18.40
2023-05-05T06:22:09.904Z,18.50
2023-05-05T06:24:12.020Z,18.50
2023-05-05T06:26:14.125Z,18.70
2023-05-05T06:28:16.311Z,18.60
2023-05-05T06:30:18.206Z,18.60
2023-05-05T06:32:20.366Z,18.60
2023-05-05T06:34:22.040Z,18.70
2023-05-05T06:36:23.743Z,18.60
2023-05-05T06:38:25.509Z,18.70
2023-05-05T06:40:27.254Z,18.70
2023-05-05T06:42:30.756Z,18.80
2023-05-05T06:44:34.601Z,18.70
2023-05-05T06:46:36.298Z,18.80
2023-05-05T06:48:38.095Z,18.80
2023-05-05T06:50:39.760Z,18.80
2023-05-05T06:52:41.781Z,18.90
2023-05-05T06:54:43.485Z,18.90
2023-05-05T06:56:45.234Z,18.90
2023-05-05T06:58:47.048Z,19.00
2023-05-05T07:00:48.731Z,19.00
2023-05-05T07:02:50.468Z,19.10
2023-05-05T07:04:52.402Z,19.10
2023-05-05T07:06:55.277Z,19.10
2023-05-05T07:08:57.871Z,19.20
2023-05-05T07:11:01.047Z,19.20
2023-05-05T07:13:02.758Z,19.20
2023-05-05T07:15:15.395Z,19.30
2023-05-05T07:17:25.563Z,19.30
2023-05-05T07:19:27.377Z,19.40
2023-05-05T07:21:29.155Z,19.40
2023-05-05T07:23:30.969Z,19.40
2023-05-05T07:25:32.763Z,19.50
2023-05-05T07:27:35.122Z,19.50
2023-05-05T07:29:36.818Z,19.60
2023-05-05T07:31:38.671Z,19.70
2023-05-05T07:33:40.561Z,19.60
2023-05-05T07:35:42.242Z,19.70
2023-05-05T07:37:52.870Z,19.70
2023-05-05T07:39:54.771Z,19.80
2023-05-05T07:41:56.548Z,19.80
2023-05-05T07:43:58.376Z,19.90
2023-05-05T07:46:00.245Z,19.90
2023-05-05T07:48:02.077Z,20.00
2023-05-05T07:50:04.080Z,20.10
2023-05-05T07:52:05.910Z,20.10
2023-05-05T07:54:07.782Z,20.10
2023-05-05T07:56:09.688Z,20.30
2023-05-05T07:58:11.553Z,20.20
2023-05-05T08:00:13.727Z,20.30
2023-05-05T08:02:15.542Z,20.30
2023-05-05T08:04:17.469Z,20.30
2023-05-05T08:06:22.434Z,20.40
2023-05-05T08:08:24.798Z,20.40
2023-05-05T08:10:27.011Z,20.60
2023-05-05T08:12:28.905Z,20.50
2023-05-05T08:14:31.135Z,20.60
2023-05-05T08:16:33.081Z,20.60
2023-05-05T08:18:37.659Z,20.70
2023-05-05T08:20:39.582Z,20.70
2023-05-05T08:22:42.717Z,20.70
2023-05-05T08:24:44.626Z,20.80
2023-05-05T08:26:46.478Z,20.80
2023-05-05T08:28:49.207Z,20.80
2023-05-05T08:30:51.133Z,20.90
2023-05-05T08:32:53.125Z,20.90
2023-05-05T08:34:54.956Z,21.00
2023-05-05T08:36:56.794Z,21.00
2023-05-05T08:38:59.275Z,21.00
2023-05-05T08:41:00.972Z,21.10
2023-05-05T08:43:03.212Z,21.10
2023-05-05T08:45:05.622Z,21.10
2023-05-05T08:47:09.736Z,21.20
2023-05-05T08:49:16.105Z,21.30
2023-05-05T08:51:19.470Z,21.30
2023-05-05T08:53:42.504Z,21.40
2023-05-05T08:55:56.559Z,21.40
2023-05-05T08:58:01.146Z,21.50
2023-05-05T09:00:04.140Z,21.50
2023-05-05T09:02:07.448Z,21.60
2023-05-05T09:04:09.800Z,21.60
2023-05-05T09:06:11.936Z,21.70
2023-05-05T09:08:13.910Z,21.80
2023-05-05T09:10:16.189Z,21.80
2023-05-05T09:12:18.696Z,21.90
2023-05-05T09:14:20.578Z,21.90
2023-05-05T09:16:22.683Z,22.00
2023-05-05T09:18:24.837Z,22.00
2023-05-05T09:20:36.990Z,22.10
2023-05-05T09:22:38.749Z,22.10
2023-05-05T09:24:54.356Z,22.20
2023-05-05T09:26:59.030Z,22.20
2023-05-05T09:29:04.774Z,22.30
2023-05-05T09:31:15.419Z,22.30
2023-05-05T09:33:28.514Z,22.40
2023-05-05T09:35:47.303Z,22.50
2023-05-05T09:37:55.973Z,22.60
2023-05-05T09:40:00.876Z,22.60
2023-05-05T09:42:11.176Z,22.70
2023-05-05T09:44:15.932Z,22.70
2023-05-05T09:46:18.139Z,22.80
2023-05-05T09:48:32.220Z,22.80
2023-05-05T09:50:46.739Z,22.90
2023-05-05T09:52:58.737Z,22.90
2023-05-05T09:55:00.863Z,23.00
2023-05-05T09:57:02.793Z,22.90
2023-05-05T09:59:09.950Z,23.10
2023-05-05T10:01:21.929Z,23.10
2023-05-05T10:03:27.226Z,23.10
2023-05-05T10:05:34.391Z,23.20
2023-05-05T10:07:39.002Z,23.20
2023-05-05T10:09:41.807Z,23.20
2023-05-05T10:11:45.058Z,23.20
2023-05-05T10:13:56.333Z,23.30
2023-05-05T10:16:02.474Z,23.30
2023-05-05T10:18:28.578Z,23.40
2023-05-05T10:20:31.348Z,23.40
2023-05-05T10:22:50.695Z,23.40
2023-05-05T10:25:29.141Z,23.50
2023-05-05T10:27:55.064Z,23.50
2023-05-05T10:30:16.983Z,23.60
2023-05-05T10:34:54.395Z,23.70
2023-05-05T10:36:57.390Z,23.70
2023-05-05T10:38:59.833Z,23.80
2023-05-05T10:41:04.312Z,23.90
2023-05-05T10:43:07.571Z,23.90
2023-05-05T10:45:09.828Z,24.00
2023-05-05T10:47:11.975Z,24.00
2023-05-05T10:49:16.711Z,24.00
2023-05-05T10:51:39.972Z,24.10
2023-05-05T10:53:50.783Z,24.10
2023-05-05T10:55:57.238Z,24.30
2023-05-05T10:57:59.590Z,24.20
2023-05-05T11:00:01.352Z,24.30
2023-05-05T11:02:19.846Z,24.30
2023-05-05T11:04:22.402Z,24.40
2023-05-05T11:06:24.225Z,24.50
2023-05-05T11:08:26.954Z,24.50
2023-05-05T11:10:43.431Z,24.60
2023-05-05T11:13:03.460Z,24.80
2023-05-05T11:15:23.824Z,24.80
2023-05-05T11:17:44.115Z,24.80
2023-05-05T11:19:46.635Z,24.90
2023-05-05T11:22:08.580Z,25.00
2023-05-05T11:24:28.221Z,24.90
2023-05-05T11:26:49.923Z,25.00
2023-05-05T11:29:01.608Z,25.00
2023-05-05T11:31:03.495Z,25.10
2023-05-05T11:33:23.735Z,25.20
2023-05-05T11:35:45.533Z,25.20
2023-05-05T11:38:00.594Z,25.30
2023-05-05T11:40:40.959Z,25.40
2023-05-05T11:42:42.661Z,25.40
2023-05-05T11:44:44.366Z,25.50
2023-05-05T11:46:51.823Z,25.50
2023-05-05T11:48:53.752Z,25.60
2023-05-05T11:50:55.435Z,25.70
2023-05-05T11:52:57.624Z,25.70
2023-05-05T11:55:02.099Z,25.80
2023-05-05T11:57:07.747Z,25.90
2023-05-05T11:59:10.664Z,25.90
2023-05-05T12:01:13.330Z,25.90
2023-05-05T12:03:15.357Z,25.90
2023-05-05T12:05:20.737Z,26.10
2023-05-05T12:07:23.285Z,26.00
2023-05-05T12:09:25.056Z,26.10
2023-05-05T12:11:28.380Z,26.10
2023-05-05T12:13:31.742Z,26.10
2023-05-05T12:15:33.641Z,26.20
2023-05-05T12:17:42.360Z,26.20
2023-05-05T12:19:50.060Z,26.20
2023-05-05T12:21:54.284Z,26.20
2023-05-05T12:23:56.377Z,26.20
2023-05-05T12:25:58.887Z,26.30
2023-05-05T12:28:01.402Z,26.20
2023-05-05T12:30:14.226Z,26.20
2023-05-05T12:32:21.078Z,26.20
2023-05-05T12:34:24.379Z,26.20
2023-05-05T12:36:27.241Z,26.20
2023-05-05T12:38:29.939Z,26.30
2023-05-05T12:40:48.120Z,26.20
2023-05-05T12:42:49.900Z,26.10
2023-05-05T12:44:52.228Z,26.10
2023-05-05T12:46:55.905Z,26.00
2023-05-05T12:49:03.631Z,26.00
2023-05-05T12:51:15.142Z,25.90
2023-05-05T12:53:23.148Z,25.90
2023-05-05T12:55:37.684Z,25.90
2023-05-05T12:57:57.878Z,25.80
2023-05-05T13:00:12.244Z,25.80
2023-05-05T13:02:16.828Z,25.70
2023-05-05T13:04:22.756Z,25.70
2023-05-05T13:06:26.107Z,25.70
2023-05-05T13:08:46.303Z,25.70
2023-05-05T13:10:58.228Z,25.60
2023-05-05T13:13:00.061Z,25.60
2023-05-05T13:15:01.756Z,25.60
2023-05-05T13:17:03.583Z,25.60
2023-05-05T13:19:05.322Z,25.70
2023-05-05T13:21:07.040Z,25.60
2023-05-05T13:23:08.776Z,25.60
2023-05-05T13:25:10.767Z,25.60
2023-05-05T13:27:12.789Z,25.70
2023-05-05T13:29:14.620Z,25.70
2023-05-05T13:31:16.487Z,25.70
2023-05-05T13:33:18.357Z,25.70
2023-05-05T13:35:20.097Z,25.80
2023-05-05T13:37:29.032Z,25.80
2023-05-05T13:39:30.775Z,25.80
2023-05-05T13:41:32.487Z,25.90
2023-05-05T13:43:34.242Z,25.90
2023-05-05T13:45:36.899Z,25.90
2023-05-05T13:47:38.909Z,26.00
2023-05-05T13:49:40.777Z,26.00
2023-05-05T13:51:42.632Z,26.10
2023-05-05T13:53:45.008Z,26.10
2023-05-05T13:55:47.136Z,26.20
2023-05-05T13:57:48.851Z,26.20
2023-05-05T13:59:50.603Z,26.30
2023-05-05T14:01:52.374Z,26.40
2023-05-05T14:03:55.589Z,26.40
2023-05-05T14:05:58.968Z,26.50
2023-05-05T14:08:00.989Z,26.50
2023-05-05T14:10:03.184Z,26.60
2023-05-05T14:12:06.187Z,26.60
2023-05-05T14:14:07.905Z,26.60
2023-05-05T14:16:09.617Z,26.70
2023-05-05T14:18:11.409Z,26.70
2023-05-05T14:20:13.246Z,26.70
2023-05-05T14:22:14.978Z,26.70
2023-05-05T14:24:16.685Z,26.70
2023-05-05T14:26:18.377Z,26.70
2023-05-05T14:28:20.097Z,26.70
2023-05-05T14:30:21.902Z,26.70
2023-05-05T14:32:24.122Z,26.70
2023-05-05T14:34:28.044Z,26.70
2023-05-05T14:36:29.738Z,26.70
2023-05-05T14:38:31.422Z,26.70
2023-05-05T14:40:33.480Z,26.70
2023-05-05T14:42:35.360Z,26.70
2023-05-05T14:44:51.638Z,26.70
2023-05-05T14:46:57.102Z,26.70
2023-05-05T14:49:10.748Z,26.60
2023-05-05T14:51:23.188Z,26.60
2023-05-05T14:53:28.008Z,26.60
2023-05-05T14:55:35.345Z,26.60
2023-05-05T15:00:42.660Z,26.60
2023-05-05T15:05:30.429Z,26.60
2023-05-05T15:07:49.378Z,26.50
2023-05-05T15:10:11.684Z,26.50
2023-05-05T15:12:13.600Z,26.50
2023-05-05T15:14:20.007Z,26.40
2023-05-05T15:21:42.182Z,26.40
2023-05-05T15:24:06.598Z,26.40
2023-05-05T15:32:48.334Z,26.30
2023-05-05T15:42:10.796Z,26.10
2023-05-05T15:44:21.354Z,26.20
2023-05-05T15:46:51.054Z,26.00
2023-05-05T15:49:17.582Z,26.00
2023-05-05T15:51:30.441Z,25.90
2023-05-05T15:53:32.532Z,26.00
2023-05-05T15:55:52.417Z,25.90
2023-05-05T15:58:59.446Z,25.90
2023-05-05T16:03:59.370Z,25.80
2023-05-05T16:07:17.063Z,25.80
2023-05-05T16:10:20.870Z,25.70
2023-05-05T16:12:40.519Z,25.60
2023-05-05T16:15:48.648Z,25.50
2023-05-05T16:18:39.646Z,25.50
2023-05-05T16:21:02.595Z,25.40
2023-05-05T16:25:51.656Z,25.00
2023-05-05T16:28:09.185Z,24.90
2023-05-05T16:30:15.419Z,24.80
2023-05-05T16:32:27.354Z,24.70
2023-05-05T16:34:38.656Z,24.50
2023-05-05T16:36:44.209Z,24.40
2023-05-05T16:38:58.008Z,24.30
2023-05-05T16:40:59.936Z,24.00
2023-05-05T16:50:47.010Z,23.40
2023-05-05T16:52:53.402Z,23.30
2023-05-05T16:55:05.359Z,23.20
2023-05-05T16:57:13.196Z,23.20
2023-05-05T16:59:24.002Z,23.10
2023-05-05T17:01:48.234Z,23.00
2023-05-05T17:03:52.910Z,23.00
2023-05-05T17:05:55.003Z,22.90
2023-05-05T17:08:05.339Z,22.90
2023-05-05T17:10:13.067Z,22.80
2023-05-05T17:12:21.202Z,22.80
2023-05-05T17:14:30.034Z,22.70
2023-05-05T17:16:36.955Z,22.70
2023-05-05T17:18:42.138Z,22.60
2023-05-05T17:20:46.815Z,22.60
2023-05-05T17:22:51.551Z,22.50
2023-05-05T17:25:02.972Z,22.40
2023-05-05T17:27:11.776Z,22.30
2023-05-05T17:29:28.874Z,22.30
2023-05-05T17:33:52.542Z,22.30
2023-05-05T17:36:10.979Z,22.20
2023-05-05T17:38:39.882Z,22.20
2023-05-05T17:40:46.243Z,22.20
2023-05-05T17:43:07.397Z,22.20
2023-05-05T17:45:22.757Z,22.10
2023-05-05T17:47:44.080Z,22.10
2023-05-05T17:49:59.523Z,22.10
2023-05-05T17:52:10.911Z,22.10
2023-05-05T17:54:16.378Z,22.00
2023-05-05T17:56:29.380Z,22.00
2023-05-05T17:58:33.915Z,21.90
2023-05-05T18:00:38.558Z,22.00
2023-05-05T18:02:40.833Z,21.90
2023-05-05T18:04:44.958Z,21.90
2023-05-05T18:06:49.093Z,21.80
2023-05-05T18:08:59.332Z,21.80
2023-05-05T18:11:39.586Z,21.80
2023-05-05T18:14:12.740Z,21.70
2023-05-05T18:16:17.664Z,21.70
2023-05-05T18:21:37.328Z,21.60
2023-05-05T18:23:47.886Z,21.60
2023-05-05T18:25:58.527Z,21.50
2023-05-05T18:28:09.518Z,21.40
2023-05-05T18:33:26.130Z,21.30
2023-05-05T18:36:03.706Z,21.20
2023-05-05T18:38:58.427Z,21.20
2023-05-05T18:41:18.395Z,21.20
2023-05-05T18:43:26.793Z,21.20
2023-05-05T18:46:00.935Z,21.10
2023-05-05T18:53:35.825Z,21.10
2023-05-05T18:55:46.671Z,20.90
2023-05-05T18:58:34.864Z,20.90
2023-05-05T19:00:42.204Z,20.90
2023-05-05T19:03:06.541Z,20.90
2023-05-05T19:05:34.615Z,20.80
2023-05-05T19:07:36.734Z,20.80
2023-05-05T19:09:38.796Z,20.70
2023-05-05T19:11:42.895Z,20.70
2023-05-05T19:13:45.332Z,20.70
2023-05-05T19:15:49.329Z,20.60
2023-05-05T19:17:59.244Z,20.60
2023-05-05T19:20:01.098Z,20.60
2023-05-05T19:22:13.376Z,20.60
2023-05-05T19:31:19.607Z,20.60
2023-05-05T19:35:18.523Z,20.50
2023-05-05T19:58:56.729Z,20.20
2023-05-05T20:01:13.514Z,20.20
2023-05-05T20:06:38.466Z,20.20
2023-05-05T20:08:46.043Z,20.20
2023-05-05T20:10:57.876Z,20.10
2023-05-05T20:13:11.204Z,20.10
2023-05-05T20:15:22.287Z,20.10
2023-05-05T20:17:28.595Z,20.10
2023-05-05T20:19:31.669Z,20.00
2023-05-05T20:21:38.649Z,20.10
2023-05-05T20:23:42.705Z,20.00
2023-05-05T20:25:47.430Z,20.00
2023-05-05T20:27:53.365Z,19.90
2023-05-05T20:29:57.952Z,20.00
2023-05-05T20:32:01.845Z,19.80
2023-05-05T20:34:03.746Z,19.80
2023-05-05T20:36:09.329Z,19.80
2023-05-05T20:38:11.313Z,19.80
2023-05-05T20:40:13.246Z,19.80
2023-05-05T20:42:18.110Z,19.80
2023-05-05T20:44:19.851Z,19.80
2023-05-05T20:46:24.074Z,19.80
2023-05-05T20:48:28.341Z,19.80
2023-05-05T20:50:30.365Z,19.70
2023-05-05T20:52:33.466Z,19.80
2023-05-05T20:54:35.442Z,19.70
2023-05-05T20:56:39.887Z,19.70
2023-05-05T20:58:43.044Z,19.70
2023-05-05T21:00:45.021Z,19.70
2023-05-05T21:02:59.646Z,19.60
2023-05-05T21:05:10.521Z,19.60
2023-05-05T21:07:17.572Z,19.70
2023-05-05T21:09:30.221Z,19.60
2023-05-05T21:11:32.166Z,19.60
2023-05-05T21:13:37.020Z,19.60
2023-05-05T21:15:40.160Z,19.50
2023-05-05T21:17:42.107Z,19.70
2023-05-05T21:19:45.930Z,19.60
2023-05-05T21:21:56.684Z,19.60
2023-05-05T21:24:07.768Z,19.60
2023-05-05T21:26:17.372Z,19.60
2023-05-05T21:28:31.804Z,19.50
2023-05-05T21:30:40.703Z,19.60
2023-05-05T21:32:54.494Z,19.50
2023-05-05T21:35:01.628Z,19.50
2023-05-05T21:37:12.381Z,19.40
2023-05-05T21:39:18.924Z,19.50
2023-05-05T21:41:29.168Z,19.50
2023-05-05T21:43:37.879Z,19.50
2023-05-05T21:45:41.788Z,19.40
2023-05-05T21:47:50.466Z,19.40
2023-05-05T21:50:10.796Z,19.40
2023-05-05T21:52:17.849Z,19.40
2023-05-05T21:56:54.449Z,19.40
2023-05-05T21:59:00.191Z,19.40
2023-05-05T22:01:10.843Z,19.50
2023-05-05T22:03:21.133Z,19.40
2023-05-05T22:05:33.540Z,19.40
2023-05-05T22:07:46.768Z,19.40
2023-05-05T22:09:49.049Z,19.30
2023-05-05T22:12:01.858Z,19.30
2023-05-05T22:14:34.472Z,19.50
2023-05-05T22:16:45.417Z,19.30
2023-05-05T22:19:00.150Z,19.30
2023-05-05T22:21:12.119Z,19.30
2023-05-05T22:23:28.045Z,19.30
2023-05-05T22:25:33.243Z,19.20
2023-05-05T22:27:37.134Z,19.20
2023-05-05T22:29:52.944Z,19.30
2023-05-05T22:32:08.242Z,19.20
2023-05-05T22:34:17.050Z,19.30
2023-05-05T22:36:32.480Z,19.40
2023-05-05T22:38:46.652Z,19.30
2023-05-05T22:41:01.927Z,19.40
2023-05-05T22:43:06.260Z,19.30
2023-05-05T22:45:10.495Z,19.40
2023-05-05T22:47:15.502Z,19.30
2023-05-05T22:49:17.477Z,19.30
2023-05-05T22:51:27.957Z,19.30
2023-05-05T22:53:37.197Z,19.30
2023-05-05T22:55:47.486Z,19.20
2023-05-05T22:57:54.025Z,19.20
2023-05-05T23:00:05.004Z,19.20
2023-05-05T23:02:09.542Z,19.10
2023-05-05T23:04:17.995Z,19.10
2023-05-05T23:06:34.831Z,19.10
2023-05-05T23:08:40.590Z,19.10
2023-05-05T23:10:49.892Z,19.10
2023-05-05T23:12:57.185Z,19.10
2023-05-05T23:15:06.177Z,19.10
2023-05-05T23:17:12.543Z,19.10
2023-05-05T23:19:16.590Z,19.00
2023-05-05T23:21:20.741Z,19.00
2023-05-05T23:23:24.460Z,18.90
2023-05-05T23:25:31.779Z,18.90
2023-05-05T23:27:45.951Z,18.90
2023-05-05T23:29:50.809Z,18.90
2023-05-05T23:31:56.298Z,19.00
2023-05-05T23:34:04.150Z,18.80
2023-05-05T23:36:07.705Z,18.90
2023-05-05T23:38:21.075Z,18.70
2023-05-05T23:40:26.500Z,18.60
2023-05-05T23:42:31.091Z,18.80
2023-05-05T23:44:43.491Z,18.70
2023-05-05T23:46:50.059Z,18.70
2023-05-05T23:48:56.450Z,18.70
2023-05-05T23:51:00.842Z,18.60
2023-05-05T23:53:09.568Z,18.60
2023-05-05T23:55:16.308Z,18.60
2023-05-05T23:57:29.182Z,18.60
2023-05-05T23:59:34.674Z,18.60
